createdAt,value
2019-05-09T00:05:54.431Z,2.80
2019-05-09T00:08:23.426Z,2.73
2019-05-09T00:10:53.490Z,3.33
2019-05-09T00:13:23.763Z,3.20
2019-05-09T00:15:54.167Z,3.20
2019-05-09T00:18:23.395Z,3.63
2019-05-09T00:20:58.444Z,3.30
2019-05-09T00:23:27.512Z,3.60
2019-05-09T00:25:56.587Z,3.77
2019-05-09T00:28:27.516Z,3.10
2019-05-09T00:31:03.432Z,3.80
2019-05-09T00:33:34.380Z,2.90
2019-05-09T00:36:04.207Z,3.63
2019-05-09T00:38:40.016Z,4.00
2019-05-09T00:41:09.211Z,4.13
2019-05-09T00:43:39.360Z,4.57
2019-05-09T00:46:27.658Z,3.23
2019-05-09T00:49:00.433Z,3.87
2019-05-09T00:51:29.586Z,3.50
2019-05-09T00:53:58.648Z,3.10
2019-05-09T00:56:27.662Z,2.93
2019-05-09T00:59:00.194Z,2.53
2019-05-09T01:01:29.696Z,2.50
2019-05-09T01:03:58.748Z,2.23
2019-05-09T01:06:27.816Z,2.67
2019-05-09T01:08:56.882Z,2.33
2019-05-09T01:11:25.946Z,2.97
2019-05-09T01:13:55.902Z,2.60
2019-05-09T01:16:24.936Z,2.87
2019-05-09T01:18:54.593Z,2.60
2019-05-09T01:21:24.249Z,2.53
2019-05-09T01:23:54.142Z,2.73
2019-05-09T01:26:24.053Z,2.93
2019-05-09T01:28:53.975Z,3.10
2019-05-09T01:31:24.868Z,2.67
2019-05-09T01:34:17.135Z,3.43
2019-05-09T01:37:05.409Z,2.50
2019-05-09T01:39:35.788Z,2.67
2019-05-09T01:42:05.139Z,2.80
2019-05-09T01:44:34.219Z,2.43
2019-05-09T01:47:03.890Z,3.00
2019-05-09T01:49:34.099Z,2.60
2019-05-09T01:52:03.950Z,2.20
2019-05-09T01:54:34.632Z,2.73
2019-05-09T01:57:04.019Z,2.43
2019-05-09T01:59:34.102Z,2.80
2019-05-09T02:02:08.126Z,2.53
2019-05-09T02:04:34.569Z,3.10
2019-05-09T02:07:04.427Z,2.57
2019-05-09T02:09:34.461Z,3.43
2019-05-09T02:12:04.389Z,3.00
2019-05-09T02:14:39.965Z,3.20
2019-05-09T02:17:34.020Z,2.87
2019-05-09T02:20:03.954Z,2.60
2019-05-09T02:22:36.828Z,2.67
2019-05-09T02:25:07.239Z,1.77
2019-05-09T02:27:36.382Z,2.03
2019-05-09T02:30:06.925Z,2.00
2019-05-09T02:32:36.245Z,2.10
2019-05-09T02:35:06.660Z,1.63
2019-05-09T02:37:38.972Z,1.70
2019-05-09T02:40:09.844Z,1.60
2019-05-09T02:42:39.797Z,1.90
2019-05-09T02:45:09.637Z,1.90
2019-05-09T02:47:38.982Z,1.80
2019-05-09T02:50:09.545Z,2.00
2019-05-09T02:52:39.790Z,1.73
2019-05-09T02:55:10.770Z,1.70
2019-05-09T02:57:40.107Z,2.13
2019-05-09T03:00:29.960Z,1.87
2019-05-09T03:03:15.735Z,1.77
2019-05-09T03:05:45.043Z,1.60
2019-05-09T03:08:14.112Z,1.70
2019-05-09T03:10:43.295Z,1.73
2019-05-09T03:13:12.681Z,2.17
2019-05-09T03:15:42.593Z,1.73
2019-05-09T03:18:11.747Z,2.20
2019-05-09T03:20:53.589Z,1.90
2019-05-09T03:23:22.688Z,2.13
2019-05-09T03:25:51.930Z,1.90
2019-05-09T03:28:32.510Z,2.10
2019-05-09T03:31:02.550Z,1.90
2019-05-09T03:33:35.790Z,2.10
2019-05-09T03:36:04.760Z,1.90
2019-05-09T03:38:34.143Z,2.50
2019-05-09T03:41:03.137Z,2.03
2019-05-09T03:43:32.213Z,1.83
2019-05-09T03:46:08.699Z,2.00
2019-05-09T03:48:42.885Z,1.80
2019-05-09T03:51:12.129Z,2.33
2019-05-09T03:53:41.213Z,1.90
2019-05-09T03:56:12.341Z,2.10
2019-05-09T03:58:41.667Z,2.30
2019-05-09T04:01:11.018Z,2.07
2019-05-09T04:03:40.107Z,2.10
2019-05-09T04:06:09.367Z,1.83
2019-05-09T04:08:38.392Z,2.00
2019-05-09T04:11:08.667Z,1.83
2019-05-09T04:13:43.373Z,2.00
2019-05-09T04:16:12.437Z,1.80
2019-05-09T04:18:41.483Z,2.20
2019-05-09T04:21:10.785Z,1.80
2019-05-09T04:23:39.898Z,1.77
2019-05-09T04:26:32.303Z,1.60
2019-05-09T04:29:01.430Z,1.93
2019-05-09T04:31:38.369Z,1.70
2019-05-09T04:34:07.799Z,1.83
2019-05-09T04:36:38.860Z,1.60
2019-05-09T04:39:12.862Z,1.80
2019-05-09T04:41:41.922Z,2.33
2019-05-09T04:44:19.260Z,1.57
2019-05-09T04:46:47.924Z,2.27
2019-05-09T04:49:18.985Z,1.90
2019-05-09T04:51:48.060Z,2.00
2019-05-09T04:54:17.877Z,1.90
2019-05-09T04:56:47.578Z,2.00
2019-05-09T04:59:17.878Z,2.30
2019-05-09T05:02:10.532Z,1.47
2019-05-09T05:04:39.656Z,2.10
2019-05-09T05:07:08.756Z,1.67
2019-05-09T05:09:38.150Z,2.30
2019-05-09T05:12:08.358Z,1.87
2019-05-09T05:14:38.509Z,1.80
2019-05-09T05:17:11.211Z,2.20
2019-05-09T05:19:39.112Z,2.10
2019-05-09T05:22:07.478Z,1.93
2019-05-09T05:24:55.618Z,1.90
2019-05-09T05:27:23.406Z,2.03
2019-05-09T05:29:52.571Z,2.03
2019-05-09T05:32:48.787Z,2.57
2019-05-09T05:35:28.461Z,1.97
2019-05-09T05:37:58.124Z,2.60
2019-05-09T05:40:33.235Z,1.70
2019-05-09T05:42:58.593Z,2.13
2019-05-09T05:45:31.685Z,2.03
2019-05-09T05:48:07.801Z,2.10
2019-05-09T05:50:38.230Z,2.40
2019-05-09T05:53:08.032Z,2.17
2019-05-09T05:55:38.059Z,1.80
2019-05-09T05:58:08.583Z,1.87
2019-05-09T06:00:38.081Z,1.90
2019-05-09T06:03:08.753Z,1.70
2019-05-09T06:05:38.432Z,1.93
2019-05-09T06:08:08.341Z,2.60
2019-05-09T06:10:37.864Z,2.07
2019-05-09T06:13:08.409Z,2.10
2019-05-09T06:15:38.015Z,1.83
2019-05-09T06:18:08.045Z,2.00
2019-05-09T06:20:38.590Z,1.90
2019-05-09T06:23:08.582Z,2.07
2019-05-09T06:25:38.903Z,2.27
2019-05-09T06:28:08.211Z,1.87
2019-05-09T06:30:40.905Z,2.10
2019-05-09T06:33:09.149Z,2.20
2019-05-09T06:35:38.350Z,2.43
2019-05-09T06:38:07.893Z,2.00
2019-05-09T06:40:38.320Z,2.40
2019-05-09T06:43:22.080Z,2.07
2019-05-09T06:46:09.317Z,2.27
2019-05-09T06:48:38.606Z,2.10
2019-05-09T06:51:07.670Z,2.03
2019-05-09T06:53:38.037Z,2.33
2019-05-09T06:56:07.578Z,2.70
2019-05-09T06:58:38.416Z,2.20
2019-05-09T07:01:31.240Z,2.07
2019-05-09T07:04:11.752Z,2.03
2019-05-09T07:06:45.321Z,2.27
2019-05-09T07:09:33.441Z,2.43
2019-05-09T07:12:02.936Z,2.30
2019-05-09T07:14:37.548Z,2.23
2019-05-09T07:17:04.190Z,2.17
2019-05-09T07:19:33.473Z,2.27
2019-05-09T07:22:24.427Z,2.20
2019-05-09T07:25:15.248Z,2.43
2019-05-09T07:27:44.464Z,2.33
2019-05-09T07:30:25.604Z,2.10
2019-05-09T07:33:05.331Z,2.43
2019-05-09T07:35:34.429Z,2.50
2019-05-09T07:38:03.713Z,2.50
2019-05-09T07:40:33.024Z,2.20
2019-05-09T07:43:02.132Z,2.40
2019-05-09T07:45:31.219Z,2.57
2019-05-09T07:48:00.523Z,2.27
2019-05-09T07:51:08.297Z,2.60
2019-05-09T07:53:38.185Z,2.43
2019-05-09T07:56:07.882Z,2.50
2019-05-09T07:58:37.854Z,3.57
2019-05-09T08:01:08.541Z,2.77
2019-05-09T08:03:38.622Z,2.27
2019-05-09T08:06:08.864Z,2.63
2019-05-09T08:08:38.598Z,2.63
2019-05-09T08:11:08.883Z,2.63
2019-05-09T08:13:39.269Z,2.80
2019-05-09T08:16:14.184Z,3.00
2019-05-09T08:18:39.847Z,3.00
2019-05-09T08:21:09.087Z,3.00
2019-05-09T08:23:39.511Z,3.33
2019-05-09T08:26:09.129Z,3.43
2019-05-09T08:28:39.121Z,3.33
2019-05-09T08:31:09.559Z,3.10
2019-05-09T08:33:38.698Z,3.57
2019-05-09T08:36:08.773Z,3.40
2019-05-09T08:38:39.121Z,3.50
2019-05-09T08:41:18.411Z,3.17
2019-05-09T08:43:48.161Z,3.77
2019-05-09T08:46:18.153Z,4.13
2019-05-09T08:48:48.462Z,4.13
2019-05-09T08:51:37.236Z,3.43
2019-05-09T08:53:58.566Z,3.70
2019-05-09T08:56:28.342Z,4.10
2019-05-09T08:59:01.771Z,4.20
2019-05-09T09:01:47.878Z,4.13
2019-05-09T09:03:59.700Z,4.47
2019-05-09T09:06:29.142Z,4.47
2019-05-09T09:08:58.310Z,3.70
2019-05-09T09:11:28.144Z,5.00
2019-05-09T09:13:57.811Z,4.70
2019-05-09T09:16:28.353Z,3.97
2019-05-09T09:18:58.496Z,4.17
2019-05-09T09:21:28.624Z,4.00
2019-05-09T09:23:58.368Z,4.10
2019-05-09T09:26:27.864Z,4.50
2019-05-09T09:28:57.890Z,5.10
2019-05-09T09:31:28.534Z,4.83
2019-05-09T09:33:58.677Z,4.40
2019-05-09T09:36:28.235Z,5.13
2019-05-09T09:38:58.642Z,6.30
2019-05-09T09:41:28.790Z,6.43
2019-05-09T09:43:58.452Z,7.60
2019-05-09T09:46:28.541Z,7.57
2019-05-09T09:48:58.833Z,7.93
2019-05-09T09:51:28.270Z,5.80
2019-05-09T09:53:58.226Z,7.37
2019-05-09T09:56:28.338Z,5.93
2019-05-09T09:59:08.808Z,6.77
2019-05-09T10:01:42.261Z,5.40
2019-05-09T10:04:20.645Z,4.33
2019-05-09T10:06:47.942Z,5.17
2019-05-09T10:09:17.461Z,5.90
2019-05-09T10:11:48.323Z,6.40
2019-05-09T10:14:23.109Z,5.70
2019-05-09T10:17:28.110Z,6.30
2019-05-09T10:20:14.981Z,4.83
2019-05-09T10:22:47.570Z,5.47
2019-05-09T10:25:14.855Z,5.53
2019-05-09T10:27:45.121Z,5.30
2019-05-09T10:30:14.476Z,5.17
2019-05-09T10:32:43.568Z,4.53
2019-05-09T10:35:17.713Z,4.17
2019-05-09T10:37:48.551Z,4.60
2019-05-09T10:40:22.786Z,4.43
2019-05-09T10:43:14.002Z,4.33
2019-05-09T10:46:16.409Z,4.00
2019-05-09T10:48:51.671Z,4.13
2019-05-09T10:51:20.920Z,4.27
2019-05-09T10:53:50.051Z,4.50
2019-05-09T10:56:19.208Z,4.63
2019-05-09T10:58:48.512Z,4.47
2019-05-09T11:01:18.667Z,4.57
2019-05-09T11:03:48.527Z,4.90
2019-05-09T11:06:18.673Z,4.33
2019-05-09T11:08:48.671Z,3.93
2019-05-09T11:11:18.318Z,3.80
2019-05-09T11:13:48.396Z,4.27
2019-05-09T11:16:18.503Z,3.60
2019-05-09T11:18:48.543Z,3.57
2019-05-09T11:21:19.149Z,4.37
2019-05-09T11:23:49.067Z,3.17
2019-05-09T11:26:18.516Z,3.33
2019-05-09T11:28:47.646Z,3.40
2019-05-09T11:31:18.483Z,3.50
2019-05-09T11:33:48.359Z,3.43
2019-05-09T11:36:21.227Z,3.30
2019-05-09T11:38:49.722Z,3.60
2019-05-09T11:41:19.560Z,3.00
2019-05-09T11:43:48.950Z,3.60
2019-05-09T11:46:18.583Z,3.57
2019-05-09T11:48:47.804Z,3.67
2019-05-09T11:51:20.511Z,2.83
2019-05-09T11:53:48.925Z,2.97
2019-05-09T11:56:18.408Z,2.80
2019-05-09T11:58:48.522Z,2.90
2019-05-09T12:01:19.062Z,2.60
2019-05-09T12:03:52.087Z,3.80
2019-05-09T12:06:20.416Z,3.30
2019-05-09T12:08:49.836Z,2.93
2019-05-09T12:11:18.944Z,3.60
2019-05-09T12:13:48.882Z,3.80
2019-05-09T12:16:18.730Z,3.53
2019-05-09T12:18:48.748Z,3.57
2019-05-09T12:21:19.445Z,2.67
2019-05-09T12:23:49.676Z,2.83
2019-05-09T12:26:19.543Z,2.80
2019-05-09T12:28:48.968Z,3.10
2019-05-09T12:31:18.511Z,2.30
2019-05-09T12:33:48.613Z,3.13
2019-05-09T12:36:19.103Z,2.60
2019-05-09T12:38:49.877Z,3.30
2019-05-09T12:41:21.340Z,2.90
2019-05-09T12:43:50.448Z,3.50
2019-05-09T12:46:19.614Z,2.30
2019-05-09T12:48:49.060Z,3.47
2019-05-09T12:51:21.296Z,2.60
2019-05-09T12:53:50.730Z,2.77
2019-05-09T12:56:19.858Z,2.47
2019-05-09T12:58:48.988Z,3.50
2019-05-09T13:01:19.015Z,2.50
2019-05-09T13:03:48.611Z,2.80
2019-05-09T13:06:20.115Z,2.50
2019-05-09T13:08:48.898Z,2.47
2019-05-09T13:11:18.768Z,2.43
2019-05-09T13:13:48.626Z,2.27
2019-05-09T13:16:49.252Z,2.27
2019-05-09T13:19:15.666Z,1.90
2019-05-09T13:21:44.766Z,2.50
2019-05-09T13:24:14.000Z,2.10
2019-05-09T13:26:44.702Z,2.20
2019-05-09T13:29:14.226Z,2.60
2019-05-09T13:31:47.925Z,3.00
2019-05-09T13:34:18.712Z,2.30
2019-05-09T13:36:48.864Z,2.30
2019-05-09T13:39:18.412Z,2.07
2019-05-09T13:41:47.771Z,2.37
2019-05-09T13:44:18.039Z,1.97
2019-05-09T13:46:48.918Z,2.67
2019-05-09T13:49:19.342Z,1.87
2019-05-09T13:51:58.694Z,1.73
2019-05-09T13:54:20.598Z,2.23
2019-05-09T13:56:57.570Z,1.63
2019-05-09T13:59:23.109Z,2.10
2019-05-09T14:01:53.048Z,1.60
2019-05-09T14:04:22.535Z,1.80
2019-05-09T14:06:53.389Z,1.70
2019-05-09T14:09:22.507Z,1.97
2019-05-09T14:11:51.986Z,1.57
2019-05-09T14:14:21.101Z,2.20
2019-05-09T14:16:50.218Z,2.00
2019-05-09T14:19:34.467Z,1.90
2019-05-09T14:21:50.453Z,1.40
2019-05-09T14:24:19.543Z,1.30
2019-05-09T14:26:48.812Z,1.90
2019-05-09T14:29:20.507Z,1.53
2019-05-09T14:31:50.183Z,2.37
2019-05-09T14:34:19.873Z,1.93
2019-05-09T14:36:49.691Z,1.73
2019-05-09T14:39:19.092Z,1.90
2019-05-09T14:41:49.645Z,2.23
2019-05-09T14:44:18.706Z,1.97
2019-05-09T14:46:48.325Z,1.83
2019-05-09T14:49:17.841Z,1.67
2019-05-09T14:51:49.791Z,1.83
2019-05-09T14:54:18.074Z,2.30
2019-05-09T14:56:48.576Z,2.10
2019-05-09T14:59:18.635Z,2.20
2019-05-09T15:01:50.115Z,1.90
2019-05-09T15:04:19.230Z,2.23
2019-05-09T15:06:48.898Z,1.60
2019-05-09T15:09:18.392Z,2.00
2019-05-09T15:11:48.419Z,2.17
2019-05-09T15:14:18.184Z,1.60
2019-05-09T15:16:48.694Z,1.83
2019-05-09T15:19:18.252Z,1.70
2019-05-09T15:21:48.692Z,1.77
2019-05-09T15:24:19.402Z,1.50
2019-05-09T15:26:48.749Z,1.63
2019-05-09T15:29:17.968Z,1.77
2019-05-09T15:31:54.119Z,1.70
2019-05-09T15:34:20.136Z,1.57
2019-05-09T15:36:49.237Z,1.77
2019-05-09T15:39:18.614Z,1.40
2019-05-09T15:41:47.914Z,2.17
2019-05-09T15:44:18.670Z,2.30
2019-05-09T15:46:55.483Z,1.67
2019-05-09T15:49:24.971Z,1.57
2019-05-09T15:51:54.129Z,1.23
2019-05-09T15:54:23.378Z,1.63
2019-05-09T15:56:52.537Z,1.60
2019-05-09T15:59:21.632Z,1.40
2019-05-09T16:01:52.325Z,2.30
2019-05-09T16:04:21.363Z,1.77
2019-05-09T16:06:51.602Z,2.20
2019-05-09T16:09:21.682Z,2.10
2019-05-09T16:11:50.737Z,1.90
2019-05-09T16:14:20.008Z,1.73
2019-05-09T16:16:49.134Z,1.83
2019-05-09T16:19:18.344Z,1.90
2019-05-09T16:21:47.894Z,1.50
2019-05-09T16:24:18.823Z,2.03
2019-05-09T16:26:48.889Z,2.20
2019-05-09T16:29:18.343Z,1.90
2019-05-09T16:31:48.870Z,1.60
2019-05-09T16:34:18.083Z,1.80
2019-05-09T16:36:48.181Z,1.97
2019-05-09T16:39:18.048Z,2.20
2019-05-09T16:41:48.539Z,2.33
2019-05-09T16:44:18.546Z,2.20
2019-05-09T16:46:48.564Z,1.83
2019-05-09T16:49:19.872Z,1.80
2019-05-09T16:51:49.255Z,2.00
2019-05-09T16:54:18.390Z,2.70
2019-05-09T16:56:47.737Z,2.30
2019-05-09T16:59:17.861Z,1.97
2019-05-09T17:01:50.441Z,1.70
2019-05-09T17:04:19.792Z,2.20
2019-05-09T17:06:49.740Z,2.00
2019-05-09T17:09:19.284Z,1.87
2019-05-09T17:11:48.395Z,2.10
2019-05-09T17:14:19.264Z,2.00
2019-05-09T17:16:52.119Z,2.17
2019-05-09T17:19:19.631Z,2.40
2019-05-09T17:21:58.510Z,2.50
2019-05-09T17:24:29.884Z,1.87
2019-05-09T17:26:59.350Z,2.40
2019-05-09T17:29:28.475Z,1.90
2019-05-09T17:31:58.391Z,2.40
2019-05-09T17:34:28.795Z,2.17
2019-05-09T17:36:58.210Z,1.97
2019-05-09T17:39:27.887Z,2.40
2019-05-09T17:41:59.287Z,2.47
2019-05-09T17:44:28.425Z,2.40
2019-05-09T17:46:57.944Z,1.97
2019-05-09T17:49:28.188Z,1.97
2019-05-09T17:51:58.409Z,2.43
2019-05-09T17:54:28.757Z,2.30
2019-05-09T17:56:58.368Z,2.43
2019-05-09T17:59:29.218Z,2.80
2019-05-09T18:01:58.690Z,2.10
2019-05-09T18:04:28.732Z,2.00
2019-05-09T18:06:58.596Z,2.67
2019-05-09T18:09:28.526Z,2.70
2019-05-09T18:11:58.083Z,2.37
2019-05-09T18:14:27.806Z,2.00
2019-05-09T18:16:58.188Z,2.10
2019-05-09T18:19:29.266Z,2.50
2019-05-09T18:21:58.771Z,2.10
2019-05-09T18:24:29.131Z,2.40
2019-05-09T18:26:58.499Z,2.30
2019-05-09T18:29:28.047Z,1.90
2019-05-09T18:32:08.006Z,2.60
2019-05-09T18:34:37.985Z,2.30
2019-05-09T18:37:08.168Z,2.00
2019-05-09T18:39:37.581Z,2.33
2019-05-09T18:42:08.728Z,2.50
2019-05-09T18:44:37.527Z,1.87
2019-05-09T18:47:07.868Z,2.30
2019-05-09T18:49:37.371Z,2.63
2019-05-09T18:52:06.569Z,2.10
2019-05-09T18:54:35.913Z,2.10
2019-05-09T18:57:05.116Z,2.33
2019-05-09T18:59:34.183Z,2.63
2019-05-09T19:02:04.172Z,2.30
2019-05-09T19:04:33.332Z,2.73
2019-05-09T19:07:02.515Z,2.50
2019-05-09T19:09:31.781Z,2.47
2019-05-09T19:12:01.172Z,2.03
2019-05-09T19:14:30.316Z,3.23
2019-05-09T19:17:17.505Z,3.47
2019-05-09T19:19:52.565Z,3.50
2019-05-09T19:22:22.880Z,3.80
2019-05-09T19:24:52.049Z,4.23
2019-05-09T19:27:21.083Z,3.63
2019-05-09T19:29:50.388Z,2.87
2019-05-09T19:32:20.843Z,3.60
2019-05-09T19:34:50.097Z,3.63
2019-05-09T19:37:19.487Z,3.43
2019-05-09T19:39:48.511Z,3.27
2019-05-09T19:42:17.609Z,3.33
2019-05-09T19:44:46.625Z,3.53
2019-05-09T19:47:15.646Z,2.97
2019-05-09T19:49:44.759Z,3.40
2019-05-09T19:52:14.057Z,3.87
2019-05-09T19:54:43.192Z,3.17
2019-05-09T19:57:12.423Z,3.87
2019-05-09T19:59:41.753Z,3.37
2019-05-09T20:02:11.366Z,4.00
2019-05-09T20:04:40.636Z,3.87
2019-05-09T20:07:09.931Z,3.50
2019-05-09T20:09:47.637Z,2.87
2019-05-09T20:12:29.813Z,3.30
2019-05-09T20:14:59.261Z,2.80
2019-05-09T20:17:28.295Z,2.73
2019-05-09T20:19:57.665Z,3.73
2019-05-09T20:22:26.806Z,3.00
2019-05-09T20:24:56.024Z,3.50
2019-05-09T20:27:25.524Z,4.23
2019-05-09T20:29:55.060Z,4.20
2019-05-09T20:32:24.193Z,5.10
2019-05-09T20:34:53.662Z,5.23
2019-05-09T20:37:23.000Z,5.30
2019-05-09T20:39:52.304Z,6.13
2019-05-09T20:42:21.816Z,5.20
2019-05-09T20:44:51.248Z,5.53
2019-05-09T20:47:20.546Z,5.70
2019-05-09T20:49:49.866Z,5.50
2019-05-09T20:52:21.519Z,5.60
2019-05-09T20:54:50.213Z,5.73
2019-05-09T20:57:19.498Z,6.00
2019-05-09T20:59:48.775Z,5.73
2019-05-09T21:02:18.120Z,5.50
2019-05-09T21:04:47.514Z,6.03
2019-05-09T21:07:16.786Z,5.40
2019-05-09T21:09:46.042Z,5.43
2019-05-09T21:12:15.411Z,5.47
2019-05-09T21:14:44.957Z,6.40
2019-05-09T21:17:14.278Z,6.40
2019-05-09T21:19:43.546Z,6.50
2019-05-09T21:22:13.034Z,6.10
2019-05-09T21:24:42.306Z,6.00
2019-05-09T21:27:11.742Z,6.10
2019-05-09T21:29:41.111Z,6.00
2019-05-09T21:32:12.514Z,6.47
2019-05-09T21:34:41.846Z,6.37
2019-05-09T21:37:13.798Z,6.23
2019-05-09T21:39:41.849Z,7.30
2019-05-09T21:42:11.110Z,6.63
2019-05-09T21:44:40.183Z,6.77
2019-05-09T21:47:09.306Z,6.40
2019-05-09T21:49:38.426Z,7.50
2019-05-09T21:52:07.511Z,6.97
2019-05-09T21:54:36.645Z,7.20
2019-05-09T21:57:05.896Z,7.10
2019-05-09T21:59:34.897Z,6.33
2019-05-09T22:02:05.338Z,6.93
2019-05-09T22:04:39.325Z,6.37
2019-05-09T22:07:13.787Z,6.83
2019-05-09T22:09:43.019Z,6.27
2019-05-09T22:12:12.180Z,7.57
2019-05-09T22:14:41.255Z,7.07
2019-05-09T22:17:17.296Z,7.70
2019-05-09T22:19:46.362Z,6.47
2019-05-09T22:22:15.637Z,6.27
2019-05-09T22:24:44.775Z,5.23
2019-05-09T22:27:13.843Z,4.33
2019-05-09T22:29:42.919Z,3.53
2019-05-09T22:32:13.182Z,4.30
2019-05-09T22:34:42.304Z,5.00
2019-05-09T22:37:11.364Z,5.80
2019-05-09T22:39:40.424Z,5.10
2019-05-09T22:42:09.500Z,4.07
2019-05-09T22:44:38.583Z,3.83
2019-05-09T22:47:07.874Z,3.20
2019-05-09T22:49:36.934Z,3.37
2019-05-09T22:52:06.020Z,3.37
2019-05-09T22:54:35.083Z,3.17
2019-05-09T22:57:04.202Z,3.33
2019-05-09T22:59:33.377Z,3.80
2019-05-09T23:02:06.930Z,3.87
2019-05-09T23:04:35.124Z,4.23
2019-05-09T23:07:04.360Z,4.17
2019-05-09T23:09:33.630Z,4.40
2019-05-09T23:12:02.903Z,4.70
2019-05-09T23:14:31.950Z,5.20
2019-05-09T23:17:01.429Z,5.17
2019-05-09T23:19:30.574Z,5.60
2019-05-09T23:21:59.656Z,5.57
2019-05-09T23:24:31.420Z,5.47
2019-05-09T23:27:00.595Z,5.43
2019-05-09T23:29:48.939Z,4.93
2019-05-09T23:32:40.770Z,4.53
2019-05-09T23:35:10.096Z,4.67
2019-05-09T23:37:39.177Z,5.90
2019-05-09T23:40:08.725Z,4.50
2019-05-09T23:42:38.068Z,4.50
2019-05-09T23:45:07.290Z,5.63
2019-05-09T23:47:36.382Z,4.43
2019-05-09T23:50:06.130Z,4.33
2019-05-09T23:52:35.375Z,4.03
2019-05-09T23:55:22.319Z,4.63
2019-05-09T23:58:09.260Z,4.20
